createdAt,value
2022-09-01T00:00:18.798Z,1.30
2022-09-01T00:02:47.964Z,1.17
2022-09-01T00:05:16.449Z,1.42
2022-09-01T00:07:46.257Z,1.00
2022-09-01T00:10:14.664Z,1.20
2022-09-01T00:12:43.241Z,1.10
2022-09-01T00:15:13.167Z,1.73
2022-09-01T00:17:41.253Z,1.40
2022-09-01T00:20:10.765Z,1.10
2022-09-01T00:22:38.862Z,1.20
2022-09-01T00:25:09.402Z,1.45
2022-09-01T00:27:37.802Z,1.23
2022-09-01T00:30:07.011Z,1.20
2022-09-01T00:32:35.052Z,1.20
2022-09-01T00:35:03.145Z,1.15
2022-09-01T00:37:31.211Z,1.35
2022-09-01T00:39:59.343Z,1.25
2022-09-01T00:42:28.887Z,1.30
2022-09-01T00:44:56.963Z,1.00
2022-09-01T00:47:25.073Z,1.10
2022-09-01T00:49:54.681Z,1.20
2022-09-01T00:52:30.846Z,1.00
2022-09-01T00:55:05.374Z,1.20
2022-09-01T00:57:35.234Z,1.10
2022-09-01T01:00:08.603Z,1.30
2022-09-01T01:02:37.186Z,1.20
2022-09-01T01:05:06.373Z,1.35
2022-09-01T01:07:43.330Z,1.30
2022-09-01T01:10:15.898Z,1.00
2022-09-01T01:12:45.691Z,1.50
2022-09-01T01:15:15.043Z,1.65
2022-09-01T01:17:43.105Z,1.10
2022-09-01T01:20:31.806Z,1.40
2022-09-01T01:23:09.089Z,1.25
2022-09-01T01:25:41.067Z,1.30
2022-09-01T01:28:13.571Z,1.38
2022-09-01T01:30:44.958Z,1.27
2022-09-01T01:33:13.119Z,1.48
2022-09-01T01:35:42.440Z,1.13
2022-09-01T01:38:11.250Z,1.20
2022-09-01T01:40:41.238Z,1.50
2022-09-01T01:43:12.257Z,1.35
2022-09-01T01:45:40.414Z,1.73
2022-09-01T01:48:08.731Z,1.42
2022-09-01T01:50:38.058Z,1.50
2022-09-01T01:53:10.825Z,1.58
2022-09-01T01:55:41.805Z,1.40
2022-09-01T01:58:12.076Z,1.40
2022-09-01T02:00:42.929Z,1.70
2022-09-01T02:03:12.844Z,1.42
2022-09-01T02:05:41.313Z,1.20
2022-09-01T02:08:11.353Z,1.60
2022-09-01T02:10:44.129Z,1.40
2022-09-01T02:13:16.513Z,1.50
2022-09-01T02:15:47.390Z,3.08
2022-09-01T02:18:18.423Z,1.40
2022-09-01T02:20:47.768Z,1.75
2022-09-01T02:23:20.211Z,1.65
2022-09-01T02:26:14.696Z,1.67
2022-09-01T02:28:42.528Z,1.48
2022-09-01T02:31:11.832Z,1.70
2022-09-01T02:33:44.205Z,1.85
2022-09-01T02:36:15.776Z,1.70
2022-09-01T02:38:46.726Z,1.55
2022-09-01T02:41:17.104Z,1.88
2022-09-01T02:43:46.309Z,1.70
2022-09-01T02:46:15.278Z,1.83
2022-09-01T02:48:46.212Z,1.90
2022-09-01T02:51:15.656Z,1.63
2022-09-01T02:53:46.023Z,2.15
2022-09-01T02:56:15.429Z,2.03
2022-09-01T02:58:47.216Z,1.98
2022-09-01T03:01:21.145Z,2.00
2022-09-01T03:03:49.679Z,2.10
2022-09-01T03:06:19.396Z,2.05
2022-09-01T03:08:47.756Z,1.95
2022-09-01T03:11:15.830Z,1.75
2022-09-01T03:13:45.466Z,2.00
2022-09-01T03:16:14.154Z,2.15
2022-09-01T03:18:42.871Z,2.00
2022-09-01T03:21:16.142Z,2.00
2022-09-01T03:23:45.668Z,2.10
2022-09-01T03:26:14.821Z,9.85
2022-09-01T03:28:44.324Z,2.50
2022-09-01T03:31:12.745Z,2.47
2022-09-01T03:33:40.986Z,2.40
2022-09-01T03:36:14.920Z,2.33
2022-09-01T03:38:44.280Z,1.98
2022-09-01T03:41:13.437Z,2.60
2022-09-01T03:43:45.830Z,2.47
2022-09-01T03:46:20.320Z,5.90
2022-09-01T03:48:50.830Z,2.40
2022-09-01T03:51:22.763Z,2.17
2022-09-01T03:53:54.573Z,1.98
2022-09-01T03:56:24.733Z,2.47
2022-09-01T03:58:53.255Z,2.40
2022-09-01T04:01:23.258Z,2.38
2022-09-01T04:03:52.202Z,2.37
2022-09-01T04:06:24.277Z,2.63
2022-09-01T04:08:55.662Z,2.45
2022-09-01T04:11:24.430Z,2.27
2022-09-01T04:13:52.903Z,2.33
2022-09-01T04:16:42.619Z,7.33
2022-09-01T04:19:20.135Z,2.15
2022-09-01T04:21:50.593Z,2.37
2022-09-01T04:24:19.389Z,2.60
2022-09-01T04:26:49.711Z,2.20
2022-09-01T04:29:24.234Z,2.20
2022-09-01T04:31:53.865Z,2.35
2022-09-01T04:34:22.588Z,2.92
2022-09-01T04:36:54.227Z,2.45
2022-09-01T04:39:23.263Z,2.17
2022-09-01T04:41:51.405Z,2.30
2022-09-01T04:44:20.174Z,3.23
2022-09-01T04:46:50.717Z,2.57
2022-09-01T04:49:22.622Z,2.20
2022-09-01T04:51:54.146Z,2.10
2022-09-01T04:54:23.517Z,2.60
2022-09-01T04:56:54.064Z,2.38
2022-09-01T04:59:24.686Z,2.25
2022-09-01T05:01:55.631Z,2.67
2022-09-01T05:04:28.193Z,2.20
2022-09-01T05:06:59.772Z,2.30
2022-09-01T05:09:29.997Z,2.08
2022-09-01T05:12:11.046Z,5.35
2022-09-01T05:14:45.166Z,4.10
2022-09-01T05:17:14.506Z,2.35
2022-09-01T05:19:47.750Z,2.20
2022-09-01T05:22:18.729Z,2.03
2022-09-01T05:24:46.881Z,2.10
2022-09-01T05:27:17.696Z,2.10
2022-09-01T05:29:46.964Z,2.10
2022-09-01T05:32:15.027Z,1.90
2022-09-01T05:34:46.141Z,2.25
2022-09-01T05:37:14.630Z,1.85
2022-09-01T05:39:42.703Z,2.05
2022-09-01T05:42:10.776Z,2.10
2022-09-01T05:44:44.095Z,2.20
2022-09-01T05:47:20.569Z,1.70
2022-09-01T05:49:50.913Z,1.83
2022-09-01T05:52:25.611Z,2.10
2022-09-01T05:55:00.067Z,2.30
2022-09-01T05:57:34.636Z,2.03
2022-09-01T06:00:11.023Z,1.83
2022-09-01T06:02:41.124Z,1.90
2022-09-01T06:05:15.302Z,1.98
2022-09-01T06:07:44.342Z,1.75
2022-09-01T06:10:13.001Z,2.60
2022-09-01T06:12:41.108Z,1.60
2022-09-01T06:15:16.146Z,1.67
2022-09-01T06:17:46.098Z,1.50
2022-09-01T06:20:18.308Z,2.35
2022-09-01T06:22:47.703Z,1.50
2022-09-01T06:25:17.440Z,1.45
2022-09-01T06:27:46.048Z,1.30
2022-09-01T06:30:23.900Z,1.00
2022-09-01T06:32:53.574Z,1.00
2022-09-01T06:35:29.931Z,1.30
2022-09-01T06:37:58.492Z,0.95
2022-09-01T06:40:26.636Z,0.85
2022-09-01T06:42:54.948Z,0.90
2022-09-01T06:45:24.892Z,0.90
2022-09-01T06:47:59.982Z,0.90
2022-09-01T06:56:09.007Z,0.93
2022-09-01T06:58:38.459Z,0.73
2022-09-01T07:01:16.079Z,0.70
2022-09-01T07:03:45.226Z,0.80
2022-09-01T07:12:24.889Z,0.60
2022-09-01T07:17:30.683Z,0.60
2022-09-01T07:20:23.177Z,0.60
2022-09-01T07:23:05.524Z,0.52
2022-09-01T07:28:37.671Z,0.75
2022-09-01T07:39:48.386Z,0.70
2022-09-01T07:39:57.488Z,0.90
2022-09-01T07:42:56.124Z,0.57
2022-09-01T07:45:26.167Z,0.57
2022-09-01T07:47:55.359Z,0.68
2022-09-01T07:50:38.729Z,0.75
2022-09-01T07:53:10.370Z,0.40
2022-09-01T07:55:44.120Z,4.72
2022-09-01T07:58:13.187Z,0.70
2022-09-01T08:00:44.487Z,0.90
2022-09-01T08:03:12.813Z,0.60
2022-09-01T08:05:41.252Z,0.50
2022-09-01T08:08:28.733Z,0.50
2022-09-01T08:11:05.843Z,0.60
2022-09-01T08:13:38.824Z,0.52
2022-09-01T08:16:17.990Z,0.60
2022-09-01T08:18:48.762Z,0.75
2022-09-01T08:21:18.005Z,0.68
2022-09-01T08:23:46.193Z,0.40
2022-09-01T08:26:18.140Z,0.43
2022-09-01T08:28:54.336Z,0.60
2022-09-01T08:31:23.557Z,0.70
2022-09-01T08:33:52.255Z,0.60
2022-09-01T08:36:24.055Z,0.47
2022-09-01T08:38:54.194Z,0.60
2022-09-01T08:41:36.321Z,0.57
2022-09-01T08:44:12.346Z,0.60
2022-09-01T08:46:42.554Z,2.53
2022-09-01T08:49:25.328Z,0.63
2022-09-01T08:51:59.053Z,0.70
2022-09-01T08:54:36.288Z,0.60
2022-09-01T08:57:11.030Z,0.60
2022-09-01T08:59:39.240Z,0.60
2022-09-01T09:02:28.623Z,0.60
2022-09-01T09:05:15.484Z,0.40
2022-09-01T09:08:07.738Z,0.77
2022-09-01T09:10:43.704Z,1.00
2022-09-01T09:13:22.865Z,2.13
2022-09-01T09:16:07.430Z,0.57
2022-09-01T09:18:54.721Z,0.50
2022-09-01T09:21:29.867Z,0.47
2022-09-01T09:24:03.481Z,0.40
2022-09-01T09:26:47.821Z,0.40
2022-09-01T09:29:18.194Z,0.55
2022-09-01T09:31:49.924Z,0.40
2022-09-01T09:34:34.933Z,0.30
2022-09-01T09:37:27.686Z,0.40
2022-09-01T09:40:10.484Z,0.40
2022-09-01T09:42:39.935Z,0.30
2022-09-01T09:45:24.745Z,0.40
2022-09-01T09:47:54.402Z,0.38
2022-09-01T09:50:26.343Z,0.40
2022-09-01T09:53:11.253Z,0.30
2022-09-01T09:55:56.059Z,0.40
2022-09-01T09:58:27.595Z,0.40
2022-09-01T10:01:06.392Z,0.60
2022-09-01T10:03:42.361Z,3.80
2022-09-01T10:06:13.626Z,0.20
2022-09-01T10:08:48.201Z,0.40
2022-09-01T10:11:35.808Z,0.32
2022-09-01T10:14:07.993Z,0.20
2022-09-01T10:16:39.826Z,0.40
2022-09-01T10:19:12.675Z,0.30
2022-09-01T10:21:43.285Z,0.98
2022-09-01T10:24:21.457Z,0.40
2022-09-01T10:26:55.035Z,0.30
2022-09-01T10:29:27.943Z,0.43
2022-09-01T10:32:28.073Z,0.57
2022-09-01T10:34:47.525Z,0.50
2022-09-01T10:37:16.377Z,0.40
2022-09-01T10:40:14.860Z,0.40
2022-09-01T10:42:45.574Z,0.40
2022-09-01T10:45:32.083Z,0.40
2022-09-01T10:48:47.864Z,0.40
2022-09-01T10:51:56.716Z,0.40
2022-09-01T10:54:57.876Z,0.30
2022-09-01T10:57:47.878Z,0.30
2022-09-01T11:03:52.821Z,0.38
2022-09-01T11:07:26.883Z,0.40
2022-09-01T11:10:31.838Z,0.30
2022-09-01T11:13:33.388Z,0.20
2022-09-01T11:16:50.056Z,1.60
2022-09-01T11:19:38.677Z,0.40
2022-09-01T11:22:23.007Z,0.47
2022-09-01T11:25:14.410Z,0.22
2022-09-01T11:28:03.392Z,0.40
2022-09-01T11:30:38.847Z,0.40
2022-09-01T11:33:18.562Z,0.38
2022-09-01T11:35:48.616Z,0.20
2022-09-01T11:38:19.692Z,0.40
2022-09-01T11:40:57.006Z,0.32
2022-09-01T11:43:27.256Z,0.40
2022-09-01T11:46:07.069Z,0.40
2022-09-01T11:48:36.006Z,0.40
2022-09-01T11:51:05.730Z,0.50
2022-09-01T11:53:34.237Z,0.30
2022-09-01T11:56:14.882Z,0.30
2022-09-01T11:58:43.166Z,0.35
2022-09-01T12:01:18.508Z,0.50
2022-09-01T12:03:49.641Z,0.30
2022-09-01T12:06:23.847Z,0.80
2022-09-01T12:09:00.290Z,0.38
2022-09-01T12:11:31.467Z,0.50
2022-09-01T12:14:02.227Z,0.50
2022-09-01T12:16:36.795Z,0.45
2022-09-01T12:19:06.631Z,0.38
2022-09-01T12:21:40.533Z,0.47
2022-09-01T12:24:14.678Z,0.40
2022-09-01T12:26:43.269Z,0.30
2022-09-01T12:29:13.794Z,0.50
2022-09-01T12:31:43.397Z,0.30
2022-09-01T12:34:26.595Z,0.30
2022-09-01T12:37:07.906Z,0.45
2022-09-01T12:39:37.981Z,0.20
2022-09-01T12:42:10.836Z,0.40
2022-09-01T12:44:50.611Z,0.40
2022-09-01T12:47:50.830Z,1.55
2022-09-01T12:50:38.155Z,0.30
2022-09-01T12:53:17.238Z,0.30
2022-09-01T12:55:57.269Z,0.38
2022-09-01T12:58:27.650Z,0.30
2022-09-01T13:00:58.516Z,0.40
2022-09-01T13:03:29.552Z,0.30
2022-09-01T13:05:59.128Z,0.40
2022-09-01T13:08:30.886Z,0.30
2022-09-01T13:11:03.082Z,0.55
2022-09-01T13:13:31.550Z,0.35
2022-09-01T13:16:01.625Z,0.50
2022-09-01T13:18:30.985Z,0.40
2022-09-01T13:20:59.957Z,1.17
2022-09-01T13:23:29.424Z,0.40
2022-09-01T13:25:59.012Z,0.40
2022-09-01T13:28:28.003Z,0.30
2022-09-01T13:36:44.890Z,0.40
2022-09-01T13:39:17.306Z,0.45
2022-09-01T13:41:47.542Z,0.40
2022-09-01T13:44:17.293Z,0.43
2022-09-01T13:47:28.281Z,0.43
2022-09-01T13:49:42.485Z,0.40
2022-09-01T13:52:13.116Z,0.50
2022-09-01T13:54:44.305Z,0.40
2022-09-01T13:57:12.767Z,0.40
2022-09-01T13:59:41.904Z,0.52
2022-09-01T14:02:10.135Z,0.40
2022-09-01T14:04:38.571Z,0.35
2022-09-01T14:07:06.769Z,0.50
2022-09-01T14:09:35.171Z,0.50
2022-09-01T14:12:05.377Z,0.80
2022-09-01T14:17:23.085Z,0.60
2022-09-01T14:19:51.596Z,0.47
2022-09-01T14:22:19.840Z,0.70
2022-09-01T14:24:47.916Z,0.65
2022-09-01T14:27:17.377Z,0.45
2022-09-01T14:29:50.318Z,0.22
2022-09-01T14:32:27.120Z,0.40
2022-09-01T14:34:55.924Z,0.30
2022-09-01T14:37:24.138Z,0.30
2022-09-01T14:39:52.678Z,0.40
2022-09-01T14:42:25.756Z,0.30
2022-09-01T14:44:53.972Z,0.47
2022-09-01T14:47:24.802Z,0.40
2022-09-01T14:49:53.491Z,1.23
2022-09-01T14:52:22.278Z,0.30
2022-09-01T14:54:51.357Z,0.50
2022-09-01T14:57:37.869Z,0.40
2022-09-01T15:00:12.082Z,0.38
2022-09-01T15:02:41.510Z,0.30
2022-09-01T15:05:11.199Z,0.30
2022-09-01T15:07:39.708Z,0.30
2022-09-01T15:10:09.379Z,0.40
2022-09-01T15:12:39.820Z,0.20
2022-09-01T15:15:16.228Z,0.20
2022-09-01T15:17:46.464Z,0.20
2022-09-01T15:20:29.081Z,0.20
2022-09-01T15:22:57.531Z,0.20
2022-09-01T15:25:25.751Z,0.30
2022-09-01T15:27:53.830Z,0.20
2022-09-01T15:30:23.365Z,0.30
2022-09-01T15:32:54.089Z,0.43
2022-09-01T15:35:23.428Z,0.30
2022-09-01T15:37:56.507Z,0.32
2022-09-01T15:40:25.823Z,0.40
2022-09-01T15:42:54.796Z,0.20
2022-09-01T15:45:25.974Z,0.35
2022-09-01T15:47:54.482Z,0.30
2022-09-01T15:50:25.726Z,0.38
2022-09-01T15:52:58.724Z,0.95
2022-09-01T15:55:28.875Z,0.38
2022-09-01T15:57:57.760Z,0.30
2022-09-01T16:00:28.449Z,0.50
2022-09-01T16:02:57.792Z,0.30
2022-09-01T16:05:27.315Z,0.40
2022-09-01T16:10:32.392Z,0.25
2022-09-01T16:13:03.180Z,0.40
2022-09-01T16:15:33.039Z,0.32
2022-09-01T16:18:23.661Z,0.68
2022-09-01T16:21:00.264Z,0.40
2022-09-01T16:23:35.124Z,0.40
2022-09-01T16:26:03.251Z,0.50
2022-09-01T16:28:35.699Z,0.50
2022-09-01T16:31:11.827Z,0.43
2022-09-01T16:33:40.343Z,0.40
2022-09-01T16:36:25.517Z,0.40
2022-09-01T16:38:59.895Z,0.50
2022-09-01T16:41:43.915Z,0.60
2022-09-01T16:44:25.442Z,0.50
2022-09-01T16:47:02.913Z,0.50
2022-09-01T16:49:37.036Z,0.70
2022-09-01T16:52:16.848Z,0.73
2022-09-01T16:54:58.791Z,0.80
2022-09-01T16:57:36.152Z,0.60
2022-09-01T17:00:08.065Z,0.43
2022-09-01T17:02:47.878Z,0.60
2022-09-01T17:05:25.757Z,0.85
2022-09-01T17:07:59.269Z,0.50
2022-09-01T17:10:41.120Z,0.47
2022-09-01T17:13:20.128Z,0.77
2022-09-01T17:15:56.222Z,0.77
2022-09-01T17:18:34.936Z,0.50
2022-09-01T17:21:11.222Z,0.70
2022-09-01T17:23:46.602Z,0.60
2022-09-01T17:26:20.607Z,1.13
2022-09-01T17:28:55.298Z,0.70
2022-09-01T17:31:52.586Z,0.63
2022-09-01T17:34:31.250Z,0.70
2022-09-01T17:37:11.923Z,0.70
2022-09-01T17:39:51.999Z,0.60
2022-09-01T17:42:30.248Z,0.60
2022-09-01T17:45:07.187Z,0.80
2022-09-01T17:47:43.618Z,0.65
2022-09-01T17:50:19.937Z,0.88
2022-09-01T17:52:55.775Z,1.10
2022-09-01T17:55:43.454Z,0.75
2022-09-01T17:58:23.792Z,1.17
2022-09-01T18:01:01.751Z,1.27
2022-09-01T18:03:59.794Z,1.38
2022-09-01T18:06:35.611Z,1.60
2022-09-01T18:09:04.798Z,1.80
2022-09-01T18:11:44.450Z,1.35
2022-09-01T18:14:16.289Z,1.27
2022-09-01T18:17:04.055Z,1.23
2022-09-01T18:19:38.431Z,1.00
2022-09-01T18:22:11.606Z,0.80
2022-09-01T18:24:48.931Z,1.02
2022-09-01T18:27:17.177Z,1.10
2022-09-01T18:29:46.846Z,0.70
2022-09-01T18:32:29.618Z,0.95
2022-09-01T18:35:29.152Z,0.88
2022-09-01T18:38:26.341Z,1.00
2022-09-01T18:41:23.223Z,0.90
2022-09-01T18:43:57.336Z,0.80
2022-09-01T18:46:32.971Z,0.93
2022-09-01T18:49:15.736Z,0.80
2022-09-01T18:52:00.656Z,1.10
2022-09-01T18:54:42.788Z,0.90
2022-09-01T18:57:18.861Z,1.00
2022-09-01T19:00:03.087Z,1.00
2022-09-01T19:03:01.192Z,0.80
2022-09-01T19:05:43.498Z,1.00
2022-09-01T19:08:23.046Z,1.08
2022-09-01T19:11:02.834Z,1.35
2022-09-01T19:13:44.098Z,1.00
2022-09-01T19:16:19.958Z,1.27
2022-09-01T19:18:54.063Z,1.10
2022-09-01T19:21:25.542Z,1.27
2022-09-01T19:24:00.383Z,1.30
2022-09-01T19:26:38.086Z,1.23
2022-09-01T19:29:09.858Z,1.08
2022-09-01T19:31:45.768Z,1.23
2022-09-01T19:34:16.597Z,1.48
2022-09-01T19:36:48.254Z,1.35
2022-09-01T19:39:18.674Z,1.33
2022-09-01T19:41:54.669Z,1.17
2022-09-01T19:44:29.682Z,1.70
2022-09-01T19:47:04.139Z,1.40
2022-09-01T19:49:39.213Z,1.60
2022-09-01T19:52:11.802Z,1.85
2022-09-01T19:54:48.138Z,1.33
2022-09-01T19:57:23.616Z,1.67
2022-09-01T19:59:58.934Z,1.42
2022-09-01T20:02:32.049Z,1.77
2022-09-01T20:05:07.729Z,1.80
2022-09-01T20:07:44.057Z,1.75
2022-09-01T20:10:23.257Z,1.42
2022-09-01T20:13:06.819Z,1.80
2022-09-01T20:15:40.090Z,1.58
2022-09-01T20:18:15.280Z,1.73
2022-09-01T20:20:48.097Z,1.77
2022-09-01T20:23:22.489Z,1.98
2022-09-01T20:25:56.570Z,1.92
2022-09-01T20:28:45.394Z,1.73
2022-09-01T20:31:22.993Z,1.73
2022-09-01T20:33:56.171Z,4.03
2022-09-01T20:36:32.064Z,5.50
2022-09-01T20:39:24.165Z,2.15
2022-09-01T20:41:58.206Z,1.98
2022-09-01T20:44:38.880Z,1.83
2022-09-01T20:47:07.844Z,2.72
2022-09-01T20:49:38.388Z,2.17
2022-09-01T20:52:14.483Z,2.42
2022-09-01T20:54:50.181Z,2.22
2022-09-01T20:57:30.225Z,2.47
2022-09-01T21:00:03.985Z,2.10
2022-09-01T21:02:45.552Z,2.63
2022-09-01T21:05:23.406Z,2.30
2022-09-01T21:08:01.821Z,2.22
2022-09-01T21:10:36.500Z,2.30
2022-09-01T21:13:15.070Z,2.17
2022-09-01T21:15:50.886Z,2.67
2022-09-01T21:18:34.100Z,2.22
2022-09-01T21:21:10.691Z,2.42
2022-09-01T21:23:38.748Z,2.33
2022-09-01T21:26:06.837Z,2.40
2022-09-01T21:28:35.611Z,2.55
2022-09-01T21:31:08.067Z,2.33
2022-09-01T21:33:36.335Z,2.20
2022-09-01T21:36:05.279Z,2.58
2022-09-01T21:38:33.733Z,2.42
2022-09-01T21:41:02.636Z,2.10
2022-09-01T21:43:33.687Z,2.67
2022-09-01T21:46:02.475Z,2.53
2022-09-01T21:48:32.323Z,2.38
2022-09-01T21:51:00.368Z,2.20
2022-09-01T21:53:28.527Z,2.38
2022-09-01T21:55:56.599Z,2.70
2022-09-01T21:58:24.740Z,2.50
2022-09-01T22:00:53.016Z,2.40
2022-09-01T22:03:21.207Z,2.40
2022-09-01T22:05:51.346Z,2.30
2022-09-01T22:08:19.400Z,2.42
2022-09-01T22:10:51.539Z,2.65
2022-09-01T22:13:21.517Z,2.35
2022-09-01T22:15:51.940Z,2.40
2022-09-01T22:18:21.377Z,2.50
2022-09-01T22:20:51.057Z,2.53
2022-09-01T22:23:20.407Z,2.80
2022-09-01T22:25:49.000Z,2.05
2022-09-01T22:28:17.010Z,2.38
2022-09-01T22:30:46.917Z,2.95
2022-09-01T22:33:15.835Z,2.70
2022-09-01T22:35:45.701Z,2.50
2022-09-01T22:38:15.735Z,2.47
2022-09-01T22:40:47.736Z,2.40
2022-09-01T22:43:18.361Z,2.42
2022-09-01T22:45:48.054Z,2.85
2022-09-01T22:48:16.767Z,3.13
2022-09-01T22:50:46.425Z,2.63
2022-09-01T22:53:17.355Z,2.10
2022-09-01T22:55:48.525Z,2.80
2022-09-01T22:58:17.427Z,2.70
2022-09-01T23:00:48.177Z,2.65
2022-09-01T23:03:16.818Z,2.60
2022-09-01T23:05:45.469Z,2.70
2022-09-01T23:08:16.020Z,2.70
2022-09-01T23:10:44.317Z,2.70
2022-09-01T23:13:12.342Z,2.22
2022-09-01T23:15:40.398Z,2.47
2022-09-01T23:18:08.897Z,3.40
2022-09-01T23:20:37.003Z,2.72
2022-09-01T23:23:05.224Z,2.70
2022-09-01T23:25:34.660Z,2.50
2022-09-01T23:28:02.852Z,2.50
2022-09-01T23:30:30.923Z,2.45
2022-09-01T23:32:58.982Z,3.00
2022-09-01T23:35:27.117Z,3.15
2022-09-01T23:37:55.279Z,2.60
2022-09-01T23:40:23.439Z,2.50
2022-09-01T23:42:52.862Z,2.25
2022-09-01T23:45:21.373Z,2.50
2022-09-01T23:47:49.395Z,2.58
2022-09-01T23:50:17.454Z,2.50
2022-09-01T23:52:46.141Z,2.40
2022-09-01T23:55:14.315Z,2.33
2022-09-01T23:57:42.346Z,2.50
